sensor_id;sensor_type;location;lat;lon;timestamp;P1;durP1;ratioP1;P2;durP2;ratioP2
41219;SDS011;26951;47.338;9.196;2022-10-31T00:02:18;6.55;;;2.40;;
41219;SDS011;26951;47.338;9.196;2022-10-31T00:05:02;6.07;;;2.47;;
41219;SDS011;26951;47.338;9.196;2022-10-31T00:07:47;5.18;;;2.10;;
41219;SDS011;26951;47.338;9.196;2022-10-31T00:10:39;6.90;;;2.22;;
41219;SDS011;26951;47.338;9.196;2022-10-31T00:13:24;3.13;;;1.80;;
41219;SDS011;26951;47.338;9.196;2022-10-31T00:16:14;11.10;;;3.25;;
41219;SDS011;26951;47.338;9.196;2022-10-31T00:19:01;7.78;;;2.33;;
41219;SDS011;26951;47.338;9.196;2022-10-31T00:21:47;5.35;;;2.25;;
41219;SDS011;26951;47.338;9.196;2022-10-31T00:24:31;4.40;;;2.50;;
41219;SDS011;26951;47.338;9.196;2022-10-31T00:27:15;10.38;;;3.40;;
41219;SDS011;26951;47.338;9.196;2022-10-31T00:29:59;5.82;;;2.40;;
41219;SDS011;26951;47.338;9.196;2022-10-31T00:32:43;5.10;;;2.22;;
41219;SDS011;26951;47.338;9.196;2022-10-31T00:35:27;7.93;;;2.28;;
41219;SDS011;26951;47.338;9.196;2022-10-31T00:38:11;6.75;;;2.20;;
41219;SDS011;26951;47.338;9.196;2022-10-31T00:40:56;3.72;;;2.30;;
41219;SDS011;26951;47.338;9.196;2022-10-31T00:43:40;6.60;;;2.15;;
41219;SDS011;26951;47.338;9.196;2022-10-31T00:46:25;7.40;;;2.45;;
41219;SDS011;26951;47.338;9.196;2022-10-31T00:49:09;5.28;;;2.40;;
41219;SDS011;26951;47.338;9.196;2022-10-31T00:51:53;5.72;;;2.25;;
41219;SDS011;26951;47.338;9.196;2022-10-31T00:54:37;3.88;;;2.22;;
41219;SDS011;26951;47.338;9.196;2022-10-31T00:57:21;7.10;;;2.70;;
41219;SDS011;26951;47.338;9.196;2022-10-31T01:00:06;4.68;;;2.30;;
41219;SDS011;26951;47.338;9.196;2022-10-31T01:02:50;3.97;;;2.05;;
41219;SDS011;26951;47.338;9.196;2022-10-31T01:05:34;6.47;;;2.00;;
41219;SDS011;26951;47.338;9.196;2022-10-31T01:08:18;11.02;;;2.88;;
41219;SDS011;26951;47.338;9.196;2022-10-31T01:11:13;7.18;;;2.42;;
41219;SDS011;26951;47.338;9.196;2022-10-31T01:13:59;4.68;;;1.67;;
41219;SDS011;26951;47.338;9.196;2022-10-31T01:16:43;7.13;;;3.40;;
41219;SDS011;26951;47.338;9.196;2022-10-31T01:19:28;5.43;;;2.20;;
41219;SDS011;26951;47.338;9.196;2022-10-31T01:24:57;6.18;;;1.92;;
41219;SDS011;26951;47.338;9.196;2022-10-31T01:27:41;4.22;;;2.30;;
41219;SDS011;26951;47.338;9.196;2022-10-31T01:30:25;7.50;;;2.10;;
41219;SDS011;26951;47.338;9.196;2022-10-31T01:33:09;6.38;;;2.80;;
41219;SDS011;26951;47.338;9.196;2022-10-31T01:35:53;7.85;;;2.35;;
41219;SDS011;26951;47.338;9.196;2022-10-31T01:38:37;5.35;;;2.55;;
41219;SDS011;26951;47.338;9.196;2022-10-31T01:41:23;4.70;;;1.80;;
41219;SDS011;26951;47.338;9.196;2022-10-31T01:47:05;5.60;;;2.05;;
41219;SDS011;26951;47.338;9.196;2022-10-31T01:49:57;4.40;;;2.20;;
41219;SDS011;26951;47.338;9.196;2022-10-31T01:52:46;4.85;;;2.35;;
41219;SDS011;26951;47.338;9.196;2022-10-31T01:55:33;4.07;;;1.88;;
41219;SDS011;26951;47.338;9.196;2022-10-31T01:58:23;5.30;;;2.13;;
41219;SDS011;26951;47.338;9.196;2022-10-31T02:01:11;8.40;;;3.13;;
41219;SDS011;26951;47.338;9.196;2022-10-31T02:03:57;6.28;;;2.28;;
41219;SDS011;26951;47.338;9.196;2022-10-31T02:06:49;8.85;;;3.20;;
41219;SDS011;26951;47.338;9.196;2022-10-31T02:09:38;6.65;;;2.00;;
41219;SDS011;26951;47.338;9.196;2022-10-31T02:12:24;5.75;;;1.90;;
41219;SDS011;26951;47.338;9.196;2022-10-31T02:15:09;6.47;;;1.98;;
41219;SDS011;26951;47.338;9.196;2022-10-31T02:17:53;6.05;;;2.30;;
41219;SDS011;26951;47.338;9.196;2022-10-31T02:20:47;4.75;;;2.08;;
41219;SDS011;26951;47.338;9.196;2022-10-31T02:24:12;7.22;;;2.08;;
41219;SDS011;26951;47.338;9.196;2022-10-31T02:30:18;6.22;;;2.47;;
41219;SDS011;26951;47.338;9.196;2022-10-31T02:36:11;5.18;;;2.40;;
41219;SDS011;26951;47.338;9.196;2022-10-31T02:42:13;3.40;;;1.73;;
41219;SDS011;26951;47.338;9.196;2022-10-31T02:45:07;3.92;;;2.00;;
41219;SDS011;26951;47.338;9.196;2022-10-31T02:48:10;6.65;;;2.35;;
41219;SDS011;26951;47.338;9.196;2022-10-31T02:50:59;4.82;;;2.13;;
41219;SDS011;26951;47.338;9.196;2022-10-31T02:53:46;4.70;;;1.88;;
41219;SDS011;26951;47.338;9.196;2022-10-31T02:56:29;7.32;;;1.80;;
41219;SDS011;26951;47.338;9.196;2022-10-31T02:59:15;4.70;;;2.17;;
41219;SDS011;26951;47.338;9.196;2022-10-31T03:02:10;2.38;;;1.42;;
41219;SDS011;26951;47.338;9.196;2022-10-31T03:13:46;5.78;;;2.33;;
41219;SDS011;26951;47.338;9.196;2022-10-31T03:19:42;3.83;;;2.00;;
41219;SDS011;26951;47.338;9.196;2022-10-31T03:22:31;8.90;;;2.63;;
41219;SDS011;26951;47.338;9.196;2022-10-31T03:25:16;4.38;;;1.67;;
41219;SDS011;26951;47.338;9.196;2022-10-31T03:28:02;4.50;;;1.67;;
41219;SDS011;26951;47.338;9.196;2022-10-31T03:30:49;2.13;;;1.60;;
41219;SDS011;26951;47.338;9.196;2022-10-31T03:33:35;8.93;;;2.85;;
41219;SDS011;26951;47.338;9.196;2022-10-31T03:36:22;6.20;;;2.38;;
41219;SDS011;26951;47.338;9.196;2022-10-31T03:39:07;7.03;;;2.45;;
41219;SDS011;26951;47.338;9.196;2022-10-31T03:42:08;5.82;;;2.20;;
41219;SDS011;26951;47.338;9.196;2022-10-31T03:45:08;6.22;;;2.80;;
41219;SDS011;26951;47.338;9.196;2022-10-31T03:47:54;6.35;;;2.30;;
41219;SDS011;26951;47.338;9.196;2022-10-31T03:51:26;5.07;;;2.33;;
41219;SDS011;26951;47.338;9.196;2022-10-31T03:54:02;4.05;;;1.83;;
41219;SDS011;26951;47.338;9.196;2022-10-31T03:57:41;4.82;;;2.35;;
41219;SDS011;26951;47.338;9.196;2022-10-31T04:00:11;4.25;;;1.95;;
41219;SDS011;26951;47.338;9.196;2022-10-31T04:03:00;2.60;;;1.90;;
41219;SDS011;26951;47.338;9.196;2022-10-31T04:05:45;5.55;;;1.90;;
41219;SDS011;26951;47.338;9.196;2022-10-31T04:08:32;4.28;;;2.13;;
41219;SDS011;26951;47.338;9.196;2022-10-31T04:11:22;4.85;;;1.98;;
41219;SDS011;26951;47.338;9.196;2022-10-31T04:14:10;4.78;;;1.50;;
41219;SDS011;26951;47.338;9.196;2022-10-31T04:19:39;5.20;;;1.92;;
41219;SDS011;26951;47.338;9.196;2022-10-31T04:22:23;6.63;;;3.00;;
41219;SDS011;26951;47.338;9.196;2022-10-31T04:25:08;6.47;;;2.17;;
41219;SDS011;26951;47.338;9.196;2022-10-31T04:27:52;3.08;;;1.67;;
41219;SDS011;26951;47.338;9.196;2022-10-31T04:30:36;4.93;;;2.10;;
41219;SDS011;26951;47.338;9.196;2022-10-31T04:33:20;4.07;;;2.03;;
41219;SDS011;26951;47.338;9.196;2022-10-31T04:36:05;6.28;;;1.90;;
41219;SDS011;26951;47.338;9.196;2022-10-31T04:38:49;5.70;;;2.45;;
41219;SDS011;26951;47.338;9.196;2022-10-31T04:41:33;3.85;;;2.42;;
41219;SDS011;26951;47.338;9.196;2022-10-31T04:44:17;3.90;;;2.78;;
41219;SDS011;26951;47.338;9.196;2022-10-31T04:47:01;5.93;;;2.60;;
41219;SDS011;26951;47.338;9.196;2022-10-31T04:49:45;5.95;;;2.35;;
41219;SDS011;26951;47.338;9.196;2022-10-31T04:52:29;3.88;;;2.17;;
41219;SDS011;26951;47.338;9.196;2022-10-31T04:55:13;6.70;;;2.28;;
41219;SDS011;26951;47.338;9.196;2022-10-31T04:57:57;5.03;;;2.28;;
41219;SDS011;26951;47.338;9.196;2022-10-31T05:00:42;4.55;;;2.58;;
41219;SDS011;26951;47.338;9.196;2022-10-31T05:03:26;4.95;;;2.35;;
41219;SDS011;26951;47.338;9.196;2022-10-31T05:06:10;4.80;;;2.28;;
41219;SDS011;26951;47.338;9.196;2022-10-31T05:08:54;6.88;;;2.33;;
41219;SDS011;26951;47.338;9.196;2022-10-31T05:11:38;5.25;;;2.65;;
41219;SDS011;26951;47.338;9.196;2022-10-31T05:14:22;10.15;;;2.42;;
41219;SDS011;26951;47.338;9.196;2022-10-31T05:17:06;4.07;;;2.65;;
41219;SDS011;26951;47.338;9.196;2022-10-31T05:19:51;4.30;;;2.03;;
41219;SDS011;26951;47.338;9.196;2022-10-31T05:22:35;6.10;;;2.20;;
41219;SDS011;26951;47.338;9.196;2022-10-31T05:25:20;4.95;;;2.03;;
41219;SDS011;26951;47.338;9.196;2022-10-31T05:28:06;7.32;;;2.90;;
41219;SDS011;26951;47.338;9.196;2022-10-31T05:30:50;5.65;;;2.60;;
41219;SDS011;26951;47.338;9.196;2022-10-31T05:33:34;4.55;;;2.30;;
41219;SDS011;26951;47.338;9.196;2022-10-31T05:36:19;10.18;;;2.30;;
41219;SDS011;26951;47.338;9.196;2022-10-31T05:39:04;4.18;;;1.88;;
41219;SDS011;26951;47.338;9.196;2022-10-31T05:41:48;7.03;;;2.33;;
41219;SDS011;26951;47.338;9.196;2022-10-31T05:44:32;5.95;;;2.30;;
41219;SDS011;26951;47.338;9.196;2022-10-31T05:47:16;4.45;;;2.38;;
41219;SDS011;26951;47.338;9.196;2022-10-31T05:50:00;7.82;;;2.88;;
41219;SDS011;26951;47.338;9.196;2022-10-31T05:52:44;7.15;;;2.30;;
41219;SDS011;26951;47.338;9.196;2022-10-31T05:55:28;7.93;;;2.53;;
41219;SDS011;26951;47.338;9.196;2022-10-31T05:58:14;7.95;;;2.90;;
41219;SDS011;26951;47.338;9.196;2022-10-31T06:00:58;7.15;;;3.25;;
41219;SDS011;26951;47.338;9.196;2022-10-31T06:03:42;6.75;;;2.20;;
41219;SDS011;26951;47.338;9.196;2022-10-31T06:06:26;5.55;;;2.13;;
41219;SDS011;26951;47.338;9.196;2022-10-31T06:09:10;8.93;;;3.25;;
41219;SDS011;26951;47.338;9.196;2022-10-31T06:11:55;7.57;;;2.13;;
41219;SDS011;26951;47.338;9.196;2022-10-31T06:14:39;4.25;;;2.28;;
41219;SDS011;26951;47.338;9.196;2022-10-31T06:17:23;6.13;;;2.55;;
41219;SDS011;26951;47.338;9.196;2022-10-31T06:20:07;10.32;;;2.75;;
41219;SDS011;26951;47.338;9.196;2022-10-31T06:22:52;6.00;;;2.25;;
41219;SDS011;26951;47.338;9.196;2022-10-31T06:25:36;5.72;;;2.70;;
41219;SDS011;26951;47.338;9.196;2022-10-31T06:28:20;4.68;;;2.83;;
41219;SDS011;26951;47.338;9.196;2022-10-31T06:31:04;6.60;;;2.80;;
41219;SDS011;26951;47.338;9.196;2022-10-31T06:33:48;4.05;;;2.60;;
41219;SDS011;26951;47.338;9.196;2022-10-31T06:36:32;4.22;;;2.83;;
41219;SDS011;26951;47.338;9.196;2022-10-31T06:39:16;6.95;;;2.78;;
41219;SDS011;26951;47.338;9.196;2022-10-31T06:42:00;4.72;;;2.75;;
41219;SDS011;26951;47.338;9.196;2022-10-31T06:44:45;5.85;;;2.97;;
41219;SDS011;26951;47.338;9.196;2022-10-31T06:47:29;7.40;;;2.70;;
41219;SDS011;26951;47.338;9.196;2022-10-31T06:50:13;5.18;;;2.42;;
41219;SDS011;26951;47.338;9.196;2022-10-31T06:52:59;6.38;;;2.50;;
41219;SDS011;26951;47.338;9.196;2022-10-31T06:55:43;7.88;;;2.80;;
41219;SDS011;26951;47.338;9.196;2022-10-31T06:58:27;5.78;;;2.40;;
41219;SDS011;26951;47.338;9.196;2022-10-31T07:01:11;4.15;;;2.53;;
41219;SDS011;26951;47.338;9.196;2022-10-31T07:03:55;5.00;;;2.65;;
41219;SDS011;26951;47.338;9.196;2022-10-31T07:06:39;3.97;;;2.10;;
41219;SDS011;26951;47.338;9.196;2022-10-31T07:09:23;5.57;;;2.70;;
41219;SDS011;26951;47.338;9.196;2022-10-31T07:12:07;4.97;;;2.50;;
41219;SDS011;26951;47.338;9.196;2022-10-31T07:14:51;6.00;;;2.35;;
41219;SDS011;26951;47.338;9.196;2022-10-31T07:17:35;7.15;;;2.97;;
41219;SDS011;26951;47.338;9.196;2022-10-31T07:20:20;3.35;;;2.22;;
41219;SDS011;26951;47.338;9.196;2022-10-31T07:23:04;7.30;;;2.75;;
41219;SDS011;26951;47.338;9.196;2022-10-31T07:25:48;4.68;;;2.60;;
41219;SDS011;26951;47.338;9.196;2022-10-31T07:28:32;6.95;;;2.55;;
41219;SDS011;26951;47.338;9.196;2022-10-31T07:31:16;4.82;;;2.58;;
41219;SDS011;26951;47.338;9.196;2022-10-31T07:34:00;7.30;;;2.58;;
41219;SDS011;26951;47.338;9.196;2022-10-31T07:36:44;3.95;;;2.40;;
41219;SDS011;26951;47.338;9.196;2022-10-31T07:39:29;7.90;;;3.38;;
41219;SDS011;26951;47.338;9.196;2022-10-31T07:42:13;6.60;;;2.72;;
41219;SDS011;26951;47.338;9.196;2022-10-31T07:44:57;5.22;;;2.63;;
41219;SDS011;26951;47.338;9.196;2022-10-31T07:47:44;5.95;;;2.47;;
41219;SDS011;26951;47.338;9.196;2022-10-31T07:50:33;6.25;;;3.00;;
41219;SDS011;26951;47.338;9.196;2022-10-31T07:53:20;7.03;;;2.97;;
41219;SDS011;26951;47.338;9.196;2022-10-31T07:56:04;5.07;;;2.95;;
41219;SDS011;26951;47.338;9.196;2022-10-31T07:58:48;5.03;;;2.80;;
41219;SDS011;26951;47.338;9.196;2022-10-31T08:01:32;8.30;;;3.38;;
41219;SDS011;26951;47.338;9.196;2022-10-31T08:04:16;7.97;;;3.97;;
41219;SDS011;26951;47.338;9.196;2022-10-31T08:07:00;6.25;;;3.10;;
41219;SDS011;26951;47.338;9.196;2022-10-31T08:09:44;6.20;;;2.80;;
41219;SDS011;26951;47.338;9.196;2022-10-31T08:12:29;8.63;;;3.03;;
41219;SDS011;26951;47.338;9.196;2022-10-31T08:15:13;5.97;;;2.65;;
41219;SDS011;26951;47.338;9.196;2022-10-31T08:17:57;10.10;;;2.83;;
41219;SDS011;26951;47.338;9.196;2022-10-31T08:20:41;6.10;;;3.13;;
41219;SDS011;26951;47.338;9.196;2022-10-31T08:23:27;7.70;;;2.47;;
41219;SDS011;26951;47.338;9.196;2022-10-31T08:26:11;6.30;;;2.83;;
41219;SDS011;26951;47.338;9.196;2022-10-31T08:28:55;5.63;;;2.50;;
41219;SDS011;26951;47.338;9.196;2022-10-31T08:31:40;4.95;;;2.88;;
41219;SDS011;26951;47.338;9.196;2022-10-31T08:34:25;5.40;;;2.78;;
41219;SDS011;26951;47.338;9.196;2022-10-31T08:37:09;3.90;;;2.35;;
41219;SDS011;26951;47.338;9.196;2022-10-31T08:39:53;4.88;;;2.88;;
41219;SDS011;26951;47.338;9.196;2022-10-31T08:42:37;4.75;;;2.25;;
41219;SDS011;26951;47.338;9.196;2022-10-31T08:45:21;7.78;;;2.50;;
41219;SDS011;26951;47.338;9.196;2022-10-31T08:48:07;7.50;;;2.88;;
41219;SDS011;26951;47.338;9.196;2022-10-31T08:50:56;5.45;;;2.88;;
41219;SDS011;26951;47.338;9.196;2022-10-31T08:53:41;4.45;;;2.13;;
41219;SDS011;26951;47.338;9.196;2022-10-31T08:56:25;5.28;;;2.22;;
41219;SDS011;26951;47.338;9.196;2022-10-31T08:59:09;4.90;;;2.17;;
41219;SDS011;26951;47.338;9.196;2022-10-31T09:01:53;4.03;;;2.20;;
41219;SDS011;26951;47.338;9.196;2022-10-31T09:04:37;6.60;;;2.30;;
41219;SDS011;26951;47.338;9.196;2022-10-31T09:07:21;8.68;;;2.50;;
41219;SDS011;26951;47.338;9.196;2022-10-31T09:10:06;6.45;;;1.90;;
41219;SDS011;26951;47.338;9.196;2022-10-31T09:13:00;4.30;;;2.42;;
41219;SDS011;26951;47.338;9.196;2022-10-31T09:15:45;4.43;;;2.20;;
41219;SDS011;26951;47.338;9.196;2022-10-31T09:18:31;3.83;;;2.30;;
41219;SDS011;26951;47.338;9.196;2022-10-31T09:21:16;4.37;;;2.70;;
41219;SDS011;26951;47.338;9.196;2022-10-31T09:24:00;5.53;;;2.90;;
41219;SDS011;26951;47.338;9.196;2022-10-31T09:26:44;6.72;;;2.75;;
41219;SDS011;26951;47.338;9.196;2022-10-31T09:29:28;6.47;;;2.65;;
41219;SDS011;26951;47.338;9.196;2022-10-31T09:32:12;4.93;;;2.20;;
41219;SDS011;26951;47.338;9.196;2022-10-31T09:34:56;7.22;;;2.80;;
41219;SDS011;26951;47.338;9.196;2022-10-31T09:37:40;5.95;;;2.67;;
41219;SDS011;26951;47.338;9.196;2022-10-31T09:40:27;5.10;;;2.25;;
41219;SDS011;26951;47.338;9.196;2022-10-31T09:46:34;6.80;;;3.05;;
41219;SDS011;26951;47.338;9.196;2022-10-31T09:50:02;8.07;;;2.22;;
41219;SDS011;26951;47.338;9.196;2022-10-31T09:53:32;7.38;;;2.25;;
41219;SDS011;26951;47.338;9.196;2022-10-31T09:56:21;8.13;;;2.10;;
41219;SDS011;26951;47.338;9.196;2022-10-31T09:59:11;5.72;;;2.80;;
41219;SDS011;26951;47.338;9.196;2022-10-31T10:02:04;7.38;;;2.85;;
41219;SDS011;26951;47.338;9.196;2022-10-31T10:05:00;7.63;;;2.85;;
41219;SDS011;26951;47.338;9.196;2022-10-31T10:07:51;6.90;;;2.40;;
41219;SDS011;26951;47.338;9.196;2022-10-31T10:10:51;6.10;;;2.20;;
41219;SDS011;26951;47.338;9.196;2022-10-31T10:13:49;8.60;;;3.03;;
41219;SDS011;26951;47.338;9.196;2022-10-31T10:16:53;3.75;;;1.88;;
41219;SDS011;26951;47.338;9.196;2022-10-31T10:20:05;6.85;;;2.50;;
41219;SDS011;26951;47.338;9.196;2022-10-31T10:26:20;9.43;;;3.08;;
41219;SDS011;26951;47.338;9.196;2022-10-31T10:29:12;9.48;;;2.03;;
41219;SDS011;26951;47.338;9.196;2022-10-31T10:32:14;6.65;;;2.88;;
41219;SDS011;26951;47.338;9.196;2022-10-31T10:35:26;4.78;;;2.20;;
41219;SDS011;26951;47.338;9.196;2022-10-31T10:41:17;4.85;;;2.90;;
41219;SDS011;26951;47.338;9.196;2022-10-31T10:44:04;8.93;;;2.30;;
41219;SDS011;26951;47.338;9.196;2022-10-31T10:46:54;7.45;;;2.28;;
41219;SDS011;26951;47.338;9.196;2022-10-31T10:50:02;4.32;;;2.47;;
41219;SDS011;26951;47.338;9.196;2022-10-31T10:53:17;5.25;;;2.30;;
41219;SDS011;26951;47.338;9.196;2022-10-31T10:56:17;4.88;;;2.40;;
41219;SDS011;26951;47.338;9.196;2022-10-31T10:59:11;8.07;;;3.75;;
41219;SDS011;26951;47.338;9.196;2022-10-31T11:01:58;4.43;;;2.15;;
41219;SDS011;26951;47.338;9.196;2022-10-31T11:04:43;4.28;;;2.20;;
41219;SDS011;26951;47.338;9.196;2022-10-31T11:07:39;6.85;;;3.05;;
41219;SDS011;26951;47.338;9.196;2022-10-31T11:10:23;5.95;;;2.15;;
41219;SDS011;26951;47.338;9.196;2022-10-31T11:13:17;5.57;;;3.60;;
41219;SDS011;26951;47.338;9.196;2022-10-31T11:16:07;7.38;;;2.60;;
41219;SDS011;26951;47.338;9.196;2022-10-31T11:22:21;6.97;;;2.92;;
41219;SDS011;26951;47.338;9.196;2022-10-31T11:25:21;4.70;;;2.40;;
41219;SDS011;26951;47.338;9.196;2022-10-31T11:28:10;4.75;;;2.28;;
41219;SDS011;26951;47.338;9.196;2022-10-31T11:30:55;6.70;;;2.45;;
41219;SDS011;26951;47.338;9.196;2022-10-31T11:33:46;6.85;;;2.38;;
41219;SDS011;26951;47.338;9.196;2022-10-31T11:36:36;5.05;;;2.13;;
41219;SDS011;26951;47.338;9.196;2022-10-31T11:39:23;6.70;;;2.25;;
41219;SDS011;26951;47.338;9.196;2022-10-31T11:42:08;5.03;;;2.97;;
41219;SDS011;26951;47.338;9.196;2022-10-31T11:44:53;6.10;;;2.57;;
41219;SDS011;26951;47.338;9.196;2022-10-31T11:47:40;11.50;;;2.88;;
41219;SDS011;26951;47.338;9.196;2022-10-31T11:53:16;7.32;;;2.72;;
41219;SDS011;26951;47.338;9.196;2022-10-31T11:56:09;5.65;;;2.55;;
41219;SDS011;26951;47.338;9.196;2022-10-31T12:01:46;7.50;;;2.30;;
41219;SDS011;26951;47.338;9.196;2022-10-31T12:04:40;6.40;;;2.33;;
41219;SDS011;26951;47.338;9.196;2022-10-31T12:07:26;6.07;;;2.38;;
41219;SDS011;26951;47.338;9.196;2022-10-31T12:10:11;3.20;;;1.97;;
41219;SDS011;26951;47.338;9.196;2022-10-31T12:13:43;5.72;;;2.90;;
41219;SDS011;26951;47.338;9.196;2022-10-31T12:16:36;4.47;;;2.10;;
41219;SDS011;26951;47.338;9.196;2022-10-31T12:19:33;7.43;;;2.53;;
41219;SDS011;26951;47.338;9.196;2022-10-31T12:43:57;6.65;;;2.30;;
41219;SDS011;26951;47.338;9.196;2022-10-31T12:52:30;4.70;;;3.13;;
41219;SDS011;26951;47.338;9.196;2022-10-31T12:58:33;6.28;;;2.78;;
41219;SDS011;26951;47.338;9.196;2022-10-31T13:01:21;6.22;;;2.70;;
41219;SDS011;26951;47.338;9.196;2022-10-31T13:04:15;7.95;;;3.33;;
41219;SDS011;26951;47.338;9.196;2022-10-31T13:07:28;9.82;;;3.28;;
41219;SDS011;26951;47.338;9.196;2022-10-31T13:13:23;7.63;;;2.83;;
41219;SDS011;26951;47.338;9.196;2022-10-31T13:16:16;5.80;;;2.45;;
41219;SDS011;26951;47.338;9.196;2022-10-31T13:19:15;6.65;;;2.17;;
41219;SDS011;26951;47.338;9.196;2022-10-31T13:22:09;9.35;;;3.13;;
41219;SDS011;26951;47.338;9.196;2022-10-31T13:25:10;6.53;;;2.65;;
41219;SDS011;26951;47.338;9.196;2022-10-31T13:31:24;4.72;;;2.88;;
41219;SDS011;26951;47.338;9.196;2022-10-31T13:34:14;4.75;;;2.40;;
41219;SDS011;26951;47.338;9.196;2022-10-31T13:37:06;4.55;;;2.65;;
41219;SDS011;26951;47.338;9.196;2022-10-31T13:40:24;5.80;;;3.30;;
41219;SDS011;26951;47.338;9.196;2022-10-31T13:46:39;7.22;;;2.80;;
41219;SDS011;26951;47.338;9.196;2022-10-31T13:54:56;4.53;;;2.35;;
41219;SDS011;26951;47.338;9.196;2022-10-31T13:57:43;10.38;;;3.03;;
41219;SDS011;26951;47.338;9.196;2022-10-31T14:00:28;5.22;;;2.67;;
41219;SDS011;26951;47.338;9.196;2022-10-31T14:03:16;7.45;;;3.25;;
41219;SDS011;26951;47.338;9.196;2022-10-31T14:06:02;5.68;;;3.47;;
41219;SDS011;26951;47.338;9.196;2022-10-31T14:08:49;6.80;;;3.83;;
41219;SDS011;26951;47.338;9.196;2022-10-31T14:11:35;8.32;;;3.40;;
41219;SDS011;26951;47.338;9.196;2022-10-31T14:14:20;6.87;;;3.30;;
41219;SDS011;26951;47.338;9.196;2022-10-31T14:17:12;6.47;;;2.70;;
41219;SDS011;26951;47.338;9.196;2022-10-31T14:22:53;7.90;;;3.25;;
41219;SDS011;26951;47.338;9.196;2022-10-31T14:25:37;6.10;;;2.92;;
41219;SDS011;26951;47.338;9.196;2022-10-31T14:28:34;4.07;;;2.83;;
41219;SDS011;26951;47.338;9.196;2022-10-31T14:34:26;7.82;;;3.95;;
41219;SDS011;26951;47.338;9.196;2022-10-31T14:43:44;3.05;;;1.90;;
41219;SDS011;26951;47.338;9.196;2022-10-31T14:46:47;6.15;;;3.03;;
41219;SDS011;26951;47.338;9.196;2022-10-31T14:50:02;5.38;;;2.22;;
41219;SDS011;26951;47.338;9.196;2022-10-31T14:53:01;4.18;;;2.42;;
41219;SDS011;26951;47.338;9.196;2022-10-31T14:55:48;4.63;;;2.50;;
41219;SDS011;26951;47.338;9.196;2022-10-31T14:58:37;3.60;;;2.47;;
41219;SDS011;26951;47.338;9.196;2022-10-31T15:01:25;6.97;;;2.30;;
41219;SDS011;26951;47.338;9.196;2022-10-31T15:04:16;6.18;;;2.25;;
41219;SDS011;26951;47.338;9.196;2022-10-31T15:07:10;6.53;;;2.40;;
41219;SDS011;26951;47.338;9.196;2022-10-31T15:10:04;5.10;;;2.67;;
41219;SDS011;26951;47.338;9.196;2022-10-31T15:13:18;3.92;;;2.30;;
41219;SDS011;26951;47.338;9.196;2022-10-31T15:18:56;7.18;;;3.40;;
41219;SDS011;26951;47.338;9.196;2022-10-31T15:21:43;4.80;;;2.67;;
41219;SDS011;26951;47.338;9.196;2022-10-31T15:24:33;9.15;;;3.28;;
41219;SDS011;26951;47.338;9.196;2022-10-31T15:27:19;5.15;;;2.60;;
41219;SDS011;26951;47.338;9.196;2022-10-31T15:30:15;8.18;;;3.50;;
41219;SDS011;26951;47.338;9.196;2022-10-31T15:33:16;7.90;;;3.70;;
41219;SDS011;26951;47.338;9.196;2022-10-31T15:36:04;5.78;;;3.15;;
41219;SDS011;26951;47.338;9.196;2022-10-31T15:38:49;5.40;;;2.47;;
41219;SDS011;26951;47.338;9.196;2022-10-31T15:41:42;6.28;;;3.42;;
41219;SDS011;26951;47.338;9.196;2022-10-31T15:44:35;4.32;;;2.63;;
41219;SDS011;26951;47.338;9.196;2022-10-31T15:47:23;9.35;;;3.45;;
41219;SDS011;26951;47.338;9.196;2022-10-31T15:50:18;9.65;;;3.38;;
41219;SDS011;26951;47.338;9.196;2022-10-31T15:53:06;7.07;;;2.97;;
41219;SDS011;26951;47.338;9.196;2022-10-31T15:56:07;8.15;;;3.60;;
41219;SDS011;26951;47.338;9.196;2022-10-31T15:58:54;5.57;;;3.20;;
41219;SDS011;26951;47.338;9.196;2022-10-31T16:01:40;6.55;;;3.22;;
41219;SDS011;26951;47.338;9.196;2022-10-31T16:07:13;7.57;;;3.22;;
41219;SDS011;26951;47.338;9.196;2022-10-31T16:10:00;5.63;;;3.30;;
41219;SDS011;26951;47.338;9.196;2022-10-31T16:12:46;8.18;;;3.50;;
41219;SDS011;26951;47.338;9.196;2022-10-31T16:15:30;5.07;;;3.97;;
41219;SDS011;26951;47.338;9.196;2022-10-31T16:18:15;6.68;;;3.70;;
41219;SDS011;26951;47.338;9.196;2022-10-31T16:20:59;5.00;;;3.33;;
41219;SDS011;26951;47.338;9.196;2022-10-31T16:23:44;5.90;;;3.05;;
41219;SDS011;26951;47.338;9.196;2022-10-31T16:26:31;5.15;;;2.80;;
41219;SDS011;26951;47.338;9.196;2022-10-31T16:29:33;5.30;;;2.88;;
41219;SDS011;26951;47.338;9.196;2022-10-31T16:32:32;4.57;;;3.35;;
41219;SDS011;26951;47.338;9.196;2022-10-31T16:35:35;7.90;;;3.47;;
41219;SDS011;26951;47.338;9.196;2022-10-31T16:38:21;9.80;;;3.50;;
41219;SDS011;26951;47.338;9.196;2022-10-31T16:41:06;5.43;;;3.55;;
41219;SDS011;26951;47.338;9.196;2022-10-31T16:43:51;7.70;;;3.97;;
41219;SDS011;26951;47.338;9.196;2022-10-31T16:46:36;10.18;;;4.10;;
41219;SDS011;26951;47.338;9.196;2022-10-31T16:49:20;7.57;;;3.85;;
41219;SDS011;26951;47.338;9.196;2022-10-31T16:52:04;6.05;;;3.60;;
41219;SDS011;26951;47.338;9.196;2022-10-31T16:54:48;6.37;;;4.43;;
41219;SDS011;26951;47.338;9.196;2022-10-31T16:57:32;8.38;;;4.13;;
41219;SDS011;26951;47.338;9.196;2022-10-31T17:00:19;6.60;;;3.50;;
41219;SDS011;26951;47.338;9.196;2022-10-31T17:03:05;5.13;;;3.28;;
41219;SDS011;26951;47.338;9.196;2022-10-31T17:05:51;8.48;;;3.17;;
41219;SDS011;26951;47.338;9.196;2022-10-31T17:08:38;6.25;;;3.83;;
41219;SDS011;26951;47.338;9.196;2022-10-31T17:11:23;7.78;;;4.70;;
41219;SDS011;26951;47.338;9.196;2022-10-31T17:14:09;6.88;;;3.63;;
41219;SDS011;26951;47.338;9.196;2022-10-31T17:16:54;8.25;;;4.05;;
41219;SDS011;26951;47.338;9.196;2022-10-31T17:19:39;8.85;;;4.45;;
41219;SDS011;26951;47.338;9.196;2022-10-31T17:22:24;7.68;;;4.50;;
41219;SDS011;26951;47.338;9.196;2022-10-31T17:25:10;9.00;;;5.00;;
41219;SDS011;26951;47.338;9.196;2022-10-31T17:28:01;6.95;;;4.45;;
41219;SDS011;26951;47.338;9.196;2022-10-31T17:30:46;7.97;;;4.63;;
41219;SDS011;26951;47.338;9.196;2022-10-31T17:33:30;8.13;;;4.97;;
41219;SDS011;26951;47.338;9.196;2022-10-31T17:36:14;8.60;;;5.15;;
41219;SDS011;26951;47.338;9.196;2022-10-31T17:38:59;8.23;;;4.18;;
41219;SDS011;26951;47.338;9.196;2022-10-31T17:41:44;8.48;;;4.00;;
41219;SDS011;26951;47.338;9.196;2022-10-31T17:44:31;7.03;;;4.47;;
41219;SDS011;26951;47.338;9.196;2022-10-31T17:47:15;10.07;;;4.38;;
41219;SDS011;26951;47.338;9.196;2022-10-31T17:49:59;8.63;;;4.78;;
41219;SDS011;26951;47.338;9.196;2022-10-31T17:52:44;8.38;;;2.67;;
41219;SDS011;26951;47.338;9.196;2022-10-31T17:55:28;4.13;;;2.23;;
41219;SDS011;26951;47.338;9.196;2022-10-31T18:00:58;5.15;;;2.28;;
41219;SDS011;26951;47.338;9.196;2022-10-31T18:03:42;5.13;;;2.53;;
41219;SDS011;26951;47.338;9.196;2022-10-31T18:06:27;3.88;;;2.17;;
41219;SDS011;26951;47.338;9.196;2022-10-31T18:09:11;5.00;;;2.42;;
41219;SDS011;26951;47.338;9.196;2022-10-31T18:11:55;3.17;;;1.80;;
41219;SDS011;26951;47.338;9.196;2022-10-31T18:14:40;3.65;;;1.77;;
41219;SDS011;26951;47.338;9.196;2022-10-31T18:20:09;3.83;;;2.00;;
41219;SDS011;26951;47.338;9.196;2022-10-31T18:22:53;6.13;;;2.17;;
41219;SDS011;26951;47.338;9.196;2022-10-31T18:25:37;8.15;;;2.40;;
41219;SDS011;26951;47.338;9.196;2022-10-31T18:28:22;3.05;;;1.40;;
41219;SDS011;26951;47.338;9.196;2022-10-31T18:31:06;3.55;;;1.40;;
41219;SDS011;26951;47.338;9.196;2022-10-31T18:33:51;8.45;;;2.42;;
41219;SDS011;26951;47.338;9.196;2022-10-31T18:36:37;4.50;;;1.63;;
41219;SDS011;26951;47.338;9.196;2022-10-31T18:39:21;5.22;;;1.65;;
41219;SDS011;26951;47.338;9.196;2022-10-31T18:42:05;3.47;;;1.45;;
41219;SDS011;26951;47.338;9.196;2022-10-31T18:44:49;3.13;;;1.35;;
41219;SDS011;26951;47.338;9.196;2022-10-31T18:47:33;5.32;;;1.60;;
41219;SDS011;26951;47.338;9.196;2022-10-31T18:50:18;3.08;;;1.25;;
41219;SDS011;26951;47.338;9.196;2022-10-31T18:53:02;2.63;;;1.20;;